• Join FlightAware (Why Join?)
  • Login
  • US Flag 
08:31AM EDT


 

Airport Tracker/Info


-or-


 

Live Flight TrackerFlight Track Log ✈ N117CC ✈ 16-Jul-2013 ✈ E16 - KSAC

Flight Track Log - Related Links

Times and Time Zones

All times are in EDT time to prevent confusion due to time zone crossing. See the N117CC flight status page for this flight to view local times or setup timezone preferences in your user account.

Time Position Orientation Groundspeed Altitude Reporting Facility
EDT Latitude Longitude Course Direction KTS MPH feet Rate Location/Type
11:59AM 37.1030 -121.4410 North 234 269  Level FlightAware
12:00PM 37.1320 -121.4390 North 235 270 4,560 Level FlightAware
12:00PM 37.1630 -121.4370 North 243 280 6,240 Level FlightAware
12:01PM 37.2000 -121.4330 North 247 284 9,540 Level FlightAware
12:01PM 37.2185 -121.4300 North 248 285 7,800 2,880 Climbing FlightAware ADS-B
12:02PM 37.2620 -121.4250 North 252 290 240 Descending FlightAware
12:02PM 37.2730 -121.4250 360° North 252 290 4,260 Level FlightAware
12:02PM 37.3180 -121.4250 360° North 274 315 4,560 Level FlightAware
12:03PM 37.3550 -121.4270 358° North 289 333 6,780 Level FlightAware
12:03PM 37.3970 -121.4310 356° North 298 343 11,040 Level FlightAware
12:04PM 37.4186 -121.4320 358° North 300 345 8,500 22,140 Climbing FlightAware ADS-B
12:04PM 37.4293 -121.4330 356° North 301 346 8,500  Level FlightAware ADS-B
12:05PM 37.5130 -121.4360 358° North 305 351  Descending FlightAware
12:05PM 37.5506 -121.4400 355° North 304 350 8,500 12,720 Climbing FlightAware ADS-B
12:05PM 37.5685 -121.4410 357° North 305 351 8,500  Level FlightAware ADS-B
12:06PM 37.5821 -121.4410 360° North 305 351 8,500  Level FlightAware ADS-B
12:06PM 37.6346 -121.4400 North 306 352 8,500  Level FlightAware ADS-B
12:07PM 37.6760 -121.4440 356° North 305 351  Descending FlightAware
12:07PM 37.6930 -121.4460 355° North 305 351 9,240 Level FlightAware
12:07PM 37.7320 -121.4500 355° North 306 352 11,820 Level FlightAware
12:08PM 37.7551 -121.4520 356° North 307 353 8,500 15,420 Climbing FlightAware ADS-B
12:08PM 37.7802 -121.4520 360° North 308 354 8,500  Level FlightAware ADS-B
12:08PM 37.8274 -121.4530 359° North 308 354 8,500  Level FlightAware ADS-B
12:09PM 37.8763 -121.4570 356° North 308 354 8,500 -840 Level FlightAware ADS-B
12:10PM 37.9350 -121.4620 356° North 314 361 -900 Descending FlightAware
12:10PM 37.9700 -121.4630 359° North 322 371 180 Level FlightAware
12:10PM 37.9940 -121.4630 360° North 320 368 180 Level FlightAware
12:11PM 38.0230 -121.4640 358° North 315 362 240 Level FlightAware
12:11PM 38.0630 -121.4690 354° North 308 354 240 Level FlightAware
12:12PM 38.1150 -121.4710 358° North 305 351 240 Level FlightAware
12:12PM 38.1650 -121.4720 359° North 299 344 300 Level FlightAware
12:13PM 38.1760 -121.4730 356° North 297 342 300 Level FlightAware
12:13PM 38.2210 -121.4790 354° North 286 329 300 Level FlightAware
12:13PM 38.2420 -121.4800 358° North 282 325 360 Level FlightAware
12:14PM 38.2780 -121.4820 358° North 281 323 420 Level FlightAware
12:14PM 38.3120 -121.4830 359° North 277 319 480 Level FlightAware
12:14PM 38.3270 -121.4830 360° North 267 307 540 Level FlightAware
12:17PM 38.4610 -121.4800 North 159 183 1,600 480 Climbing FlightAware
12:17PM 38.4820 -121.4730 15° North 153 176 1,500 -180 Descending FlightAware
12:18PM 38.4940 -121.4610 38° Northeast 148 170 1,500  Level FlightAware
12:18PM 38.5110 -121.4440 38° Northeast 145 167 1,500  Level FlightAware
12:19PM 38.5280 -121.4300 33° Northeast 147 169 1,500 -180 Level FlightAware
12:19PM 38.5320 -121.4290 11° North 149 171 1,400 -180 Descending FlightAware
12:19PM 38.5470 -121.4390 332° Northwest 136 157 1,400 -180 Level FlightAware
12:19PM 38.5510 -121.4490 297° West 126 145 1,300 -540 Descending FlightAware
12:20PM 38.5480 -121.4620 254° West 111 128 1,100 -540 Descending FlightAware
12:20PM 38.5440 -121.4680 230° Southwest 99 114 1,000 -720 Descending FlightAware
12:20PM 38.5390 -121.4720 212° Southwest 95 109 800 -840 Descending FlightAware
12:21PM 38.5310 -121.4790 214° Southwest 92 106 500 -360 Descending FlightAware
12:21PM 38.5220 -121.4870 215° Southwest 93 107 500  Level FlightAware
12:29PM 38.5125 -121.4935 237° Southwest  Level Estimated